sensor_id;sensor_type;location;lat;lon;timestamp;P1;durP1;ratioP1;P2;durP2;ratioP2
75169;SDS011;63749;49.186;9.222;2023-09-30T00:00:58;6.33;;;2.30;;
75169;SDS011;63749;49.186;9.222;2023-09-30T00:03:23;5.43;;;2.08;;
75169;SDS011;63749;49.186;9.222;2023-09-30T00:05:49;4.47;;;2.20;;
75169;SDS011;63749;49.186;9.222;2023-09-30T00:08:14;5.80;;;2.20;;
75169;SDS011;63749;49.186;9.222;2023-09-30T00:10:40;4.87;;;2.20;;
75169;SDS011;63749;49.186;9.222;2023-09-30T00:13:05;5.00;;;2.60;;
75169;SDS011;63749;49.186;9.222;2023-09-30T00:15:33;5.13;;;2.25;;
75169;SDS011;63749;49.186;9.222;2023-09-30T00:17:59;4.93;;;2.40;;
75169;SDS011;63749;49.186;9.222;2023-09-30T00:20:26;7.72;;;2.20;;
75169;SDS011;63749;49.186;9.222;2023-09-30T00:22:52;8.65;;;2.47;;
75169;SDS011;63749;49.186;9.222;2023-09-30T00:25:17;5.27;;;2.47;;
75169;SDS011;63749;49.186;9.222;2023-09-30T00:27:43;6.17;;;2.40;;
75169;SDS011;63749;49.186;9.222;2023-09-30T00:30:08;5.97;;;2.33;;
75169;SDS011;63749;49.186;9.222;2023-09-30T00:32:34;6.22;;;2.28;;
75169;SDS011;63749;49.186;9.222;2023-09-30T00:35:02;3.37;;;2.00;;
75169;SDS011;63749;49.186;9.222;2023-09-30T00:37:28;6.25;;;2.20;;
75169;SDS011;63749;49.186;9.222;2023-09-30T00:39:53;6.27;;;2.17;;
75169;SDS011;63749;49.186;9.222;2023-09-30T00:42:19;3.60;;;2.20;;
75169;SDS011;63749;49.186;9.222;2023-09-30T00:44:45;4.82;;;2.20;;
75169;SDS011;63749;49.186;9.222;2023-09-30T00:47:11;6.32;;;2.20;;
75169;SDS011;63749;49.186;9.222;2023-09-30T00:49:37;4.27;;;1.93;;
75169;SDS011;63749;49.186;9.222;2023-09-30T00:52:03;5.93;;;2.17;;
75169;SDS011;63749;49.186;9.222;2023-09-30T00:54:29;6.27;;;2.30;;
75169;SDS011;63749;49.186;9.222;2023-09-30T00:56:55;6.85;;;2.42;;
75169;SDS011;63749;49.186;9.222;2023-09-30T00:59:21;6.57;;;2.47;;
75169;SDS011;63749;49.186;9.222;2023-09-30T01:01:46;5.30;;;2.30;;
75169;SDS011;63749;49.186;9.222;2023-09-30T01:04:12;6.30;;;2.50;;
75169;SDS011;63749;49.186;9.222;2023-09-30T01:06:38;6.37;;;2.60;;
75169;SDS011;63749;49.186;9.222;2023-09-30T01:09:04;6.28;;;2.55;;
75169;SDS011;63749;49.186;9.222;2023-09-30T01:11:29;5.20;;;2.80;;
75169;SDS011;63749;49.186;9.222;2023-09-30T01:13:55;7.10;;;2.97;;
75169;SDS011;63749;49.186;9.222;2023-09-30T01:16:22;5.85;;;2.70;;
75169;SDS011;63749;49.186;9.222;2023-09-30T01:18:47;6.10;;;3.10;;
75169;SDS011;63749;49.186;9.222;2023-09-30T01:21:13;5.50;;;3.10;;
75169;SDS011;63749;49.186;9.222;2023-09-30T01:23:39;7.53;;;3.50;;
75169;SDS011;63749;49.186;9.222;2023-09-30T01:26:13;5.33;;;3.17;;
75169;SDS011;63749;49.186;9.222;2023-09-30T01:28:40;6.32;;;3.08;;
75169;SDS011;63749;49.186;9.222;2023-09-30T01:31:05;9.50;;;3.30;;
75169;SDS011;63749;49.186;9.222;2023-09-30T01:33:31;7.00;;;3.40;;
75169;SDS011;63749;49.186;9.222;2023-09-30T01:35:58;8.23;;;3.33;;
75169;SDS011;63749;49.186;9.222;2023-09-30T01:38:24;8.37;;;3.73;;
75169;SDS011;63749;49.186;9.222;2023-09-30T01:40:50;6.68;;;3.45;;
75169;SDS011;63749;49.186;9.222;2023-09-30T01:43:16;6.53;;;3.60;;
75169;SDS011;63749;49.186;9.222;2023-09-30T01:45:42;7.10;;;3.72;;
75169;SDS011;63749;49.186;9.222;2023-09-30T01:48:09;9.03;;;3.67;;
75169;SDS011;63749;49.186;9.222;2023-09-30T01:50:36;8.38;;;3.75;;
75169;SDS011;63749;49.186;9.222;2023-09-30T01:53:02;7.93;;;4.07;;
75169;SDS011;63749;49.186;9.222;2023-09-30T01:55:28;6.97;;;3.67;;
75169;SDS011;63749;49.186;9.222;2023-09-30T01:57:53;7.33;;;3.90;;
75169;SDS011;63749;49.186;9.222;2023-09-30T02:00:19;8.60;;;4.30;;
75169;SDS011;63749;49.186;9.222;2023-09-30T02:02:44;7.90;;;3.73;;
75169;SDS011;63749;49.186;9.222;2023-09-30T02:05:10;8.83;;;4.00;;
75169;SDS011;63749;49.186;9.222;2023-09-30T02:07:35;12.53;;;4.60;;
75169;SDS011;63749;49.186;9.222;2023-09-30T02:10:00;8.07;;;4.20;;
75169;SDS011;63749;49.186;9.222;2023-09-30T02:12:26;9.20;;;4.20;;
75169;SDS011;63749;49.186;9.222;2023-09-30T02:14:53;8.68;;;4.22;;
75169;SDS011;63749;49.186;9.222;2023-09-30T02:17:19;11.63;;;4.20;;
75169;SDS011;63749;49.186;9.222;2023-09-30T02:19:44;13.73;;;4.30;;
75169;SDS011;63749;49.186;9.222;2023-09-30T02:22:10;9.68;;;4.50;;
75169;SDS011;63749;49.186;9.222;2023-09-30T02:24:36;8.87;;;4.20;;
75169;SDS011;63749;49.186;9.222;2023-09-30T02:27:01;10.13;;;4.05;;
75169;SDS011;63749;49.186;9.222;2023-09-30T02:29:27;9.43;;;4.13;;
75169;SDS011;63749;49.186;9.222;2023-09-30T02:31:53;8.37;;;4.03;;
75169;SDS011;63749;49.186;9.222;2023-09-30T02:34:19;9.10;;;4.55;;
75169;SDS011;63749;49.186;9.222;2023-09-30T02:36:45;9.80;;;4.33;;
75169;SDS011;63749;49.186;9.222;2023-09-30T02:39:10;10.17;;;4.20;;
75169;SDS011;63749;49.186;9.222;2023-09-30T02:41:36;7.55;;;4.38;;
75169;SDS011;63749;49.186;9.222;2023-09-30T02:44:02;10.50;;;4.30;;
75169;SDS011;63749;49.186;9.222;2023-09-30T02:46:28;9.00;;;4.60;;
75169;SDS011;63749;49.186;9.222;2023-09-30T02:48:53;10.13;;;4.37;;
75169;SDS011;63749;49.186;9.222;2023-09-30T02:51:19;10.00;;;4.80;;
75169;SDS011;63749;49.186;9.222;2023-09-30T02:53:44;8.83;;;4.90;;
75169;SDS011;63749;49.186;9.222;2023-09-30T02:56:11;10.40;;;4.80;;
75169;SDS011;63749;49.186;9.222;2023-09-30T02:58:36;12.17;;;4.87;;
75169;SDS011;63749;49.186;9.222;2023-09-30T03:01:03;9.32;;;4.70;;
75169;SDS011;63749;49.186;9.222;2023-09-30T03:03:28;10.27;;;4.60;;
75169;SDS011;63749;49.186;9.222;2023-09-30T03:05:55;9.43;;;4.68;;
75169;SDS011;63749;49.186;9.222;2023-09-30T03:08:22;10.95;;;5.07;;
75169;SDS011;63749;49.186;9.222;2023-09-30T03:10:49;9.20;;;4.78;;
75169;SDS011;63749;49.186;9.222;2023-09-30T03:13:14;11.77;;;5.20;;
75169;SDS011;63749;49.186;9.222;2023-09-30T03:15:39;9.53;;;4.57;;
75169;SDS011;63749;49.186;9.222;2023-09-30T03:18:05;9.10;;;4.90;;
75169;SDS011;63749;49.186;9.222;2023-09-30T03:20:30;11.80;;;4.88;;
75169;SDS011;63749;49.186;9.222;2023-09-30T03:22:56;8.27;;;4.80;;
75169;SDS011;63749;49.186;9.222;2023-09-30T03:25:22;8.63;;;4.70;;
75169;SDS011;63749;49.186;9.222;2023-09-30T03:27:47;8.97;;;4.80;;
75169;SDS011;63749;49.186;9.222;2023-09-30T03:30:13;10.47;;;4.97;;
75169;SDS011;63749;49.186;9.222;2023-09-30T03:32:42;10.98;;;5.43;;
75169;SDS011;63749;49.186;9.222;2023-09-30T03:35:09;10.05;;;5.07;;
75169;SDS011;63749;49.186;9.222;2023-09-30T03:37:42;12.65;;;5.07;;
75169;SDS011;63749;49.186;9.222;2023-09-30T03:40:09;11.02;;;4.97;;
75169;SDS011;63749;49.186;9.222;2023-09-30T03:42:42;9.43;;;5.17;;
75169;SDS011;63749;49.186;9.222;2023-09-30T03:45:08;9.90;;;5.00;;
75169;SDS011;63749;49.186;9.222;2023-09-30T03:47:37;10.82;;;5.03;;
75169;SDS011;63749;49.186;9.222;2023-09-30T03:50:03;11.23;;;4.72;;
75169;SDS011;63749;49.186;9.222;2023-09-30T03:52:30;12.00;;;5.07;;
75169;SDS011;63749;49.186;9.222;2023-09-30T03:54:58;10.13;;;5.00;;
75169;SDS011;63749;49.186;9.222;2023-09-30T03:57:30;10.15;;;5.03;;
75169;SDS011;63749;49.186;9.222;2023-09-30T03:59:57;13.30;;;5.30;;
75169;SDS011;63749;49.186;9.222;2023-09-30T04:02:23;12.50;;;5.10;;
75169;SDS011;63749;49.186;9.222;2023-09-30T04:04:48;10.30;;;5.65;;
75169;SDS011;63749;49.186;9.222;2023-09-30T04:07:17;12.35;;;5.28;;
75169;SDS011;63749;49.186;9.222;2023-09-30T04:09:42;11.30;;;5.70;;
75169;SDS011;63749;49.186;9.222;2023-09-30T04:12:07;13.93;;;5.90;;
75169;SDS011;63749;49.186;9.222;2023-09-30T04:14:33;11.30;;;5.73;;
75169;SDS011;63749;49.186;9.222;2023-09-30T04:16:58;11.13;;;5.57;;
75169;SDS011;63749;49.186;9.222;2023-09-30T04:19:23;13.53;;;6.00;;
75169;SDS011;63749;49.186;9.222;2023-09-30T04:21:49;13.20;;;5.80;;
75169;SDS011;63749;49.186;9.222;2023-09-30T04:24:14;11.40;;;5.80;;
75169;SDS011;63749;49.186;9.222;2023-09-30T04:26:39;12.63;;;5.83;;
75169;SDS011;63749;49.186;9.222;2023-09-30T04:29:05;11.80;;;5.93;;
75169;SDS011;63749;49.186;9.222;2023-09-30T04:31:31;10.93;;;5.53;;
75169;SDS011;63749;49.186;9.222;2023-09-30T04:33:56;12.70;;;6.10;;
75169;SDS011;63749;49.186;9.222;2023-09-30T04:36:23;11.77;;;5.68;;
75169;SDS011;63749;49.186;9.222;2023-09-30T04:38:48;12.15;;;5.70;;
75169;SDS011;63749;49.186;9.222;2023-09-30T04:41:14;11.00;;;5.70;;
75169;SDS011;63749;49.186;9.222;2023-09-30T04:43:40;15.02;;;6.25;;
75169;SDS011;63749;49.186;9.222;2023-09-30T04:46:08;12.55;;;6.45;;
75169;SDS011;63749;49.186;9.222;2023-09-30T04:48:34;12.87;;;6.20;;
75169;SDS011;63749;49.186;9.222;2023-09-30T04:50:59;12.73;;;6.57;;
75169;SDS011;63749;49.186;9.222;2023-09-30T04:53:25;13.55;;;6.45;;
75169;SDS011;63749;49.186;9.222;2023-09-30T04:55:50;13.87;;;6.63;;
75169;SDS011;63749;49.186;9.222;2023-09-30T04:58:16;14.60;;;6.33;;
75169;SDS011;63749;49.186;9.222;2023-09-30T05:00:42;14.35;;;6.82;;
75169;SDS011;63749;49.186;9.222;2023-09-30T05:03:08;14.20;;;6.72;;
75169;SDS011;63749;49.186;9.222;2023-09-30T05:05:33;15.93;;;7.07;;
75169;SDS011;63749;49.186;9.222;2023-09-30T05:07:59;14.23;;;6.82;;
75169;SDS011;63749;49.186;9.222;2023-09-30T05:10:25;16.73;;;7.10;;
75169;SDS011;63749;49.186;9.222;2023-09-30T05:12:50;13.73;;;6.78;;
75169;SDS011;63749;49.186;9.222;2023-09-30T05:15:19;14.90;;;7.30;;
75169;SDS011;63749;49.186;9.222;2023-09-30T05:17:45;15.93;;;6.82;;
75169;SDS011;63749;49.186;9.222;2023-09-30T05:20:11;13.40;;;6.68;;
75169;SDS011;63749;49.186;9.222;2023-09-30T05:22:38;16.08;;;7.18;;
75169;SDS011;63749;49.186;9.222;2023-09-30T05:25:05;14.38;;;7.30;;
75169;SDS011;63749;49.186;9.222;2023-09-30T05:27:32;16.40;;;6.97;;
75169;SDS011;63749;49.186;9.222;2023-09-30T05:29:57;16.38;;;7.32;;
75169;SDS011;63749;49.186;9.222;2023-09-30T05:32:23;16.57;;;6.77;;
75169;SDS011;63749;49.186;9.222;2023-09-30T05:34:48;18.20;;;7.23;;
75169;SDS011;63749;49.186;9.222;2023-09-30T05:37:14;15.73;;;6.83;;
75169;SDS011;63749;49.186;9.222;2023-09-30T05:39:39;20.07;;;7.40;;
75169;SDS011;63749;49.186;9.222;2023-09-30T05:42:05;18.70;;;7.40;;
75169;SDS011;63749;49.186;9.222;2023-09-30T05:44:31;18.25;;;8.02;;
75169;SDS011;63749;49.186;9.222;2023-09-30T05:46:57;16.17;;;7.65;;
75169;SDS011;63749;49.186;9.222;2023-09-30T05:49:24;16.10;;;7.97;;
75169;SDS011;63749;49.186;9.222;2023-09-30T05:51:50;17.48;;;7.72;;
75169;SDS011;63749;49.186;9.222;2023-09-30T05:54:15;17.40;;;7.97;;
75169;SDS011;63749;49.186;9.222;2023-09-30T05:56:41;20.38;;;8.10;;
75169;SDS011;63749;49.186;9.222;2023-09-30T05:59:08;15.87;;;7.70;;
75169;SDS011;63749;49.186;9.222;2023-09-30T06:01:34;16.70;;;7.65;;
75169;SDS011;63749;49.186;9.222;2023-09-30T06:04:01;13.40;;;7.40;;
75169;SDS011;63749;49.186;9.222;2023-09-30T06:06:27;14.98;;;7.60;;
75169;SDS011;63749;49.186;9.222;2023-09-30T06:08:54;14.10;;;7.13;;
75169;SDS011;63749;49.186;9.222;2023-09-30T06:11:23;13.10;;;6.47;;
75169;SDS011;63749;49.186;9.222;2023-09-30T06:13:56;13.98;;;6.97;;
75169;SDS011;63749;49.186;9.222;2023-09-30T06:16:26;14.25;;;6.68;;
75169;SDS011;63749;49.186;9.222;2023-09-30T06:18:52;11.57;;;6.40;;
75169;SDS011;63749;49.186;9.222;2023-09-30T06:21:18;14.23;;;6.50;;
75169;SDS011;63749;49.186;9.222;2023-09-30T06:23:46;13.23;;;6.38;;
75169;SDS011;63749;49.186;9.222;2023-09-30T06:26:16;13.35;;;6.43;;
75169;SDS011;63749;49.186;9.222;2023-09-30T06:28:42;13.02;;;6.32;;
75169;SDS011;63749;49.186;9.222;2023-09-30T06:31:08;14.27;;;6.37;;
75169;SDS011;63749;49.186;9.222;2023-09-30T06:33:34;12.53;;;6.33;;
75169;SDS011;63749;49.186;9.222;2023-09-30T06:36:01;14.53;;;6.47;;
75169;SDS011;63749;49.186;9.222;2023-09-30T06:38:27;13.70;;;6.45;;
75169;SDS011;63749;49.186;9.222;2023-09-30T06:40:52;15.48;;;6.32;;
75169;SDS011;63749;49.186;9.222;2023-09-30T06:43:19;14.07;;;6.40;;
75169;SDS011;63749;49.186;9.222;2023-09-30T06:45:44;14.05;;;7.20;;
75169;SDS011;63749;49.186;9.222;2023-09-30T06:48:11;11.70;;;6.68;;
75169;SDS011;63749;49.186;9.222;2023-09-30T06:50:44;18.50;;;7.10;;
75169;SDS011;63749;49.186;9.222;2023-09-30T06:53:10;13.63;;;6.72;;
75169;SDS011;63749;49.186;9.222;2023-09-30T06:55:37;14.80;;;6.85;;
75169;SDS011;63749;49.186;9.222;2023-09-30T06:58:03;12.77;;;6.53;;
75169;SDS011;63749;49.186;9.222;2023-09-30T07:00:32;12.10;;;7.00;;
75169;SDS011;63749;49.186;9.222;2023-09-30T07:02:59;16.40;;;7.03;;
75169;SDS011;63749;49.186;9.222;2023-09-30T07:05:24;14.90;;;6.95;;
75169;SDS011;63749;49.186;9.222;2023-09-30T07:07:50;15.43;;;6.77;;
75169;SDS011;63749;49.186;9.222;2023-09-30T07:10:16;13.52;;;6.90;;
75169;SDS011;63749;49.186;9.222;2023-09-30T07:12:41;14.13;;;6.63;;
75169;SDS011;63749;49.186;9.222;2023-09-30T07:15:07;11.53;;;6.80;;
75169;SDS011;63749;49.186;9.222;2023-09-30T07:17:33;13.98;;;6.78;;
75169;SDS011;63749;49.186;9.222;2023-09-30T07:19:59;12.40;;;6.40;;
75169;SDS011;63749;49.186;9.222;2023-09-30T07:22:25;12.97;;;6.80;;
75169;SDS011;63749;49.186;9.222;2023-09-30T07:24:50;15.35;;;6.95;;
75169;SDS011;63749;49.186;9.222;2023-09-30T07:27:16;14.57;;;6.50;;
75169;SDS011;63749;49.186;9.222;2023-09-30T07:29:41;14.60;;;6.78;;
75169;SDS011;63749;49.186;9.222;2023-09-30T07:32:07;11.13;;;6.40;;
75169;SDS011;63749;49.186;9.222;2023-09-30T07:34:33;14.23;;;6.95;;
75169;SDS011;63749;49.186;9.222;2023-09-30T07:36:59;12.73;;;6.73;;
75169;SDS011;63749;49.186;9.222;2023-09-30T07:39:24;13.03;;;6.30;;
75169;SDS011;63749;49.186;9.222;2023-09-30T07:41:49;12.83;;;6.67;;
75169;SDS011;63749;49.186;9.222;2023-09-30T07:44:15;14.07;;;6.50;;
75169;SDS011;63749;49.186;9.222;2023-09-30T07:46:40;11.13;;;6.20;;
75169;SDS011;63749;49.186;9.222;2023-09-30T07:49:08;12.05;;;6.03;;
75169;SDS011;63749;49.186;9.222;2023-09-30T07:51:34;13.48;;;6.47;;
75169;SDS011;63749;49.186;9.222;2023-09-30T07:54:00;15.18;;;6.57;;
75169;SDS011;63749;49.186;9.222;2023-09-30T07:56:26;11.73;;;6.43;;
75169;SDS011;63749;49.186;9.222;2023-09-30T07:58:51;17.07;;;7.10;;
75169;SDS011;63749;49.186;9.222;2023-09-30T08:01:17;14.15;;;6.30;;
75169;SDS011;63749;49.186;9.222;2023-09-30T08:03:43;10.90;;;5.90;;
75169;SDS011;63749;49.186;9.222;2023-09-30T08:06:08;12.90;;;6.57;;
75169;SDS011;63749;49.186;9.222;2023-09-30T08:08:34;12.47;;;5.70;;
75169;SDS011;63749;49.186;9.222;2023-09-30T08:11:00;10.50;;;5.72;;
75169;SDS011;63749;49.186;9.222;2023-09-30T08:13:25;12.17;;;6.20;;
75169;SDS011;63749;49.186;9.222;2023-09-30T08:15:51;12.83;;;6.30;;
75169;SDS011;63749;49.186;9.222;2023-09-30T08:18:18;10.18;;;6.05;;
75169;SDS011;63749;49.186;9.222;2023-09-30T08:20:43;14.05;;;6.43;;
75169;SDS011;63749;49.186;9.222;2023-09-30T08:23:09;13.13;;;6.13;;
75169;SDS011;63749;49.186;9.222;2023-09-30T08:25:34;11.40;;;5.33;;
75169;SDS011;63749;49.186;9.222;2023-09-30T08:28:00;12.60;;;5.28;;
75169;SDS011;63749;49.186;9.222;2023-09-30T08:30:25;9.47;;;5.03;;
75169;SDS011;63749;49.186;9.222;2023-09-30T08:32:51;11.80;;;4.90;;
75169;SDS011;63749;49.186;9.222;2023-09-30T08:35:16;10.33;;;4.80;;
75169;SDS011;63749;49.186;9.222;2023-09-30T08:37:41;14.20;;;4.85;;
75169;SDS011;63749;49.186;9.222;2023-09-30T08:40:07;10.10;;;4.40;;
75169;SDS011;63749;49.186;9.222;2023-09-30T08:42:34;10.82;;;4.20;;
75169;SDS011;63749;49.186;9.222;2023-09-30T08:45:00;9.40;;;4.30;;
75169;SDS011;63749;49.186;9.222;2023-09-30T08:47:26;11.13;;;5.05;;
75169;SDS011;63749;49.186;9.222;2023-09-30T08:49:53;11.80;;;5.47;;
75169;SDS011;63749;49.186;9.222;2023-09-30T08:52:22;14.90;;;6.05;;
75169;SDS011;63749;49.186;9.222;2023-09-30T08:54:48;11.23;;;4.43;;
75169;SDS011;63749;49.186;9.222;2023-09-30T08:57:13;9.37;;;4.43;;
75169;SDS011;63749;49.186;9.222;2023-09-30T08:59:41;9.43;;;4.18;;
75169;SDS011;63749;49.186;9.222;2023-09-30T09:02:08;10.50;;;4.50;;
75169;SDS011;63749;49.186;9.222;2023-09-30T09:04:35;10.10;;;4.20;;
75169;SDS011;63749;49.186;9.222;2023-09-30T09:07:01;8.10;;;4.25;;
75169;SDS011;63749;49.186;9.222;2023-09-30T09:09:27;11.47;;;4.97;;
75169;SDS011;63749;49.186;9.222;2023-09-30T09:11:52;13.13;;;5.00;;
75169;SDS011;63749;49.186;9.222;2023-09-30T09:14:17;12.20;;;4.60;;
75169;SDS011;63749;49.186;9.222;2023-09-30T09:16:55;11.57;;;4.93;;
75169;SDS011;63749;49.186;9.222;2023-09-30T09:19:22;12.95;;;4.60;;
75169;SDS011;63749;49.186;9.222;2023-09-30T09:21:58;12.27;;;4.50;;
75169;SDS011;63749;49.186;9.222;2023-09-30T09:24:31;11.10;;;5.00;;
75169;SDS011;63749;49.186;9.222;2023-09-30T09:27:09;11.18;;;5.10;;
75169;SDS011;63749;49.186;9.222;2023-09-30T09:29:36;14.70;;;4.40;;
75169;SDS011;63749;49.186;9.222;2023-09-30T09:32:07;12.15;;;4.00;;
75169;SDS011;63749;49.186;9.222;2023-09-30T09:34:43;10.23;;;4.00;;
75169;SDS011;63749;49.186;9.222;2023-09-30T09:37:17;9.35;;;4.10;;
75169;SDS011;63749;49.186;9.222;2023-09-30T09:39:55;9.30;;;4.18;;
75169;SDS011;63749;49.186;9.222;2023-09-30T09:42:29;7.45;;;3.70;;
75169;SDS011;63749;49.186;9.222;2023-09-30T09:45:02;8.50;;;3.78;;
75169;SDS011;63749;49.186;9.222;2023-09-30T09:47:29;10.83;;;4.50;;
75169;SDS011;63749;49.186;9.222;2023-09-30T09:49:56;8.68;;;3.90;;
75169;SDS011;63749;49.186;9.222;2023-09-30T09:52:22;7.82;;;3.70;;
75169;SDS011;63749;49.186;9.222;2023-09-30T09:54:49;10.18;;;4.00;;
75169;SDS011;63749;49.186;9.222;2023-09-30T09:57:16;11.00;;;3.80;;
75169;SDS011;63749;49.186;9.222;2023-09-30T09:59:43;9.90;;;3.70;;
75169;SDS011;63749;49.186;9.222;2023-09-30T10:02:12;9.13;;;3.63;;
75169;SDS011;63749;49.186;9.222;2023-09-30T10:04:39;7.90;;;3.40;;
75169;SDS011;63749;49.186;9.222;2023-09-30T10:07:07;7.95;;;3.50;;
75169;SDS011;63749;49.186;9.222;2023-09-30T10:09:36;9.07;;;3.72;;
75169;SDS011;63749;49.186;9.222;2023-09-30T10:12:02;6.47;;;3.20;;
75169;SDS011;63749;49.186;9.222;2023-09-30T10:14:32;7.75;;;3.60;;
75169;SDS011;63749;49.186;9.222;2023-09-30T10:16:58;7.13;;;3.53;;
75169;SDS011;63749;49.186;9.222;2023-09-30T10:19:24;9.70;;;3.63;;
75169;SDS011;63749;49.186;9.222;2023-09-30T10:24:56;6.45;;;3.20;;
75169;SDS011;63749;49.186;9.222;2023-09-30T10:35:16;7.07;;;3.55;;
75169;SDS011;63749;49.186;9.222;2023-09-30T10:37:45;8.43;;;3.70;;
75169;SDS011;63749;49.186;9.222;2023-09-30T10:40:27;7.90;;;3.40;;
75169;SDS011;63749;49.186;9.222;2023-09-30T10:42:53;7.43;;;3.33;;
75169;SDS011;63749;49.186;9.222;2023-09-30T10:50:50;7.90;;;3.50;;
75169;SDS011;63749;49.186;9.222;2023-09-30T10:53:54;8.18;;;3.30;;
75169;SDS011;63749;49.186;9.222;2023-09-30T10:56:30;7.80;;;3.80;;
75169;SDS011;63749;49.186;9.222;2023-09-30T10:58:58;7.88;;;3.85;;
75169;SDS011;63749;49.186;9.222;2023-09-30T11:01:24;9.75;;;3.60;;
75169;SDS011;63749;49.186;9.222;2023-09-30T11:03:50;9.57;;;3.60;;
75169;SDS011;63749;49.186;9.222;2023-09-30T11:06:23;7.63;;;3.78;;
75169;SDS011;63749;49.186;9.222;2023-09-30T11:11:19;8.73;;;3.23;;
75169;SDS011;63749;49.186;9.222;2023-09-30T11:13:44;8.15;;;3.40;;
75169;SDS011;63749;49.186;9.222;2023-09-30T11:16:10;9.30;;;3.80;;
75169;SDS011;63749;49.186;9.222;2023-09-30T11:18:35;7.23;;;3.23;;
75169;SDS011;63749;49.186;9.222;2023-09-30T11:21:10;10.30;;;3.50;;
75169;SDS011;63749;49.186;9.222;2023-09-30T11:23:38;9.73;;;3.70;;
75169;SDS011;63749;49.186;9.222;2023-09-30T11:26:05;10.25;;;3.50;;
75169;SDS011;63749;49.186;9.222;2023-09-30T11:28:41;6.13;;;3.30;;
75169;SDS011;63749;49.186;9.222;2023-09-30T11:31:08;7.45;;;3.63;;
75169;SDS011;63749;49.186;9.222;2023-09-30T11:33:51;9.00;;;3.85;;
75169;SDS011;63749;49.186;9.222;2023-09-30T11:36:21;9.32;;;3.97;;
75169;SDS011;63749;49.186;9.222;2023-09-30T11:38:47;9.50;;;3.63;;
75169;SDS011;63749;49.186;9.222;2023-09-30T11:41:14;9.33;;;3.80;;
75169;SDS011;63749;49.186;9.222;2023-09-30T11:43:39;7.65;;;3.70;;
75169;SDS011;63749;49.186;9.222;2023-09-30T11:46:22;8.05;;;3.60;;
75169;SDS011;63749;49.186;9.222;2023-09-30T11:48:58;8.63;;;3.73;;
75169;SDS011;63749;49.186;9.222;2023-09-30T11:51:25;9.05;;;3.70;;
75169;SDS011;63749;49.186;9.222;2023-09-30T11:53:52;8.93;;;3.83;;
75169;SDS011;63749;49.186;9.222;2023-09-30T11:56:18;7.63;;;3.67;;
75169;SDS011;63749;49.186;9.222;2023-09-30T11:58:44;10.47;;;4.07;;
75169;SDS011;63749;49.186;9.222;2023-09-30T12:01:11;10.03;;;4.10;;
75169;SDS011;63749;49.186;9.222;2023-09-30T12:03:38;9.38;;;4.00;;
75169;SDS011;63749;49.186;9.222;2023-09-30T12:06:05;11.43;;;4.00;;
75169;SDS011;63749;49.186;9.222;2023-09-30T12:08:31;9.13;;;4.20;;
75169;SDS011;63749;49.186;9.222;2023-09-30T12:10:57;8.75;;;4.10;;
75169;SDS011;63749;49.186;9.222;2023-09-30T12:13:23;7.97;;;4.07;;
75169;SDS011;63749;49.186;9.222;2023-09-30T12:15:49;9.47;;;3.83;;
75169;SDS011;63749;49.186;9.222;2023-09-30T12:18:14;8.15;;;3.95;;
75169;SDS011;63749;49.186;9.222;2023-09-30T12:20:42;8.57;;;3.90;;
75169;SDS011;63749;49.186;9.222;2023-09-30T12:23:09;9.65;;;3.90;;
75169;SDS011;63749;49.186;9.222;2023-09-30T12:25:34;10.47;;;3.97;;
75169;SDS011;63749;49.186;9.222;2023-09-30T12:28:02;9.93;;;4.20;;
75169;SDS011;63749;49.186;9.222;2023-09-30T12:30:28;8.32;;;4.00;;
75169;SDS011;63749;49.186;9.222;2023-09-30T12:32:53;9.73;;;4.40;;
75169;SDS011;63749;49.186;9.222;2023-09-30T12:35:20;10.80;;;4.47;;
75169;SDS011;63749;49.186;9.222;2023-09-30T12:37:46;9.93;;;4.22;;
75169;SDS011;63749;49.186;9.222;2023-09-30T12:40:11;8.97;;;4.10;;
75169;SDS011;63749;49.186;9.222;2023-09-30T12:42:39;8.88;;;4.18;;
75169;SDS011;63749;49.186;9.222;2023-09-30T12:45:04;11.20;;;4.20;;
75169;SDS011;63749;49.186;9.222;2023-09-30T12:47:30;12.02;;;4.63;;
75169;SDS011;63749;49.186;9.222;2023-09-30T12:49:56;9.85;;;4.35;;
75169;SDS011;63749;49.186;9.222;2023-09-30T12:52:22;10.68;;;4.32;;
75169;SDS011;63749;49.186;9.222;2023-09-30T12:54:49;9.67;;;4.67;;
75169;SDS011;63749;49.186;9.222;2023-09-30T12:57:14;11.23;;;5.18;;
75169;SDS011;63749;49.186;9.222;2023-09-30T12:59:42;11.70;;;5.25;;
75169;SDS011;63749;49.186;9.222;2023-09-30T13:02:11;11.00;;;4.73;;
75169;SDS011;63749;49.186;9.222;2023-09-30T13:04:36;11.13;;;5.20;;
75169;SDS011;63749;49.186;9.222;2023-09-30T13:07:02;10.90;;;5.10;;
75169;SDS011;63749;49.186;9.222;2023-09-30T13:09:28;10.30;;;5.87;;
75169;SDS011;63749;49.186;9.222;2023-09-30T13:11:53;11.27;;;5.43;;
75169;SDS011;63749;49.186;9.222;2023-09-30T13:14:18;10.63;;;4.90;;
75169;SDS011;63749;49.186;9.222;2023-09-30T13:16:44;10.17;;;5.30;;
75169;SDS011;63749;49.186;9.222;2023-09-30T13:19:09;10.27;;;5.33;;
75169;SDS011;63749;49.186;9.222;2023-09-30T13:21:34;10.47;;;5.43;;
75169;SDS011;63749;49.186;9.222;2023-09-30T13:24:00;9.23;;;5.30;;
75169;SDS011;63749;49.186;9.222;2023-09-30T13:26:25;9.63;;;5.23;;
75169;SDS011;63749;49.186;9.222;2023-09-30T13:28:51;11.00;;;5.70;;
75169;SDS011;63749;49.186;9.222;2023-09-30T13:31:16;12.67;;;5.97;;
75169;SDS011;63749;49.186;9.222;2023-09-30T13:33:41;10.68;;;5.65;;
75169;SDS011;63749;49.186;9.222;2023-09-30T13:36:07;10.97;;;5.73;;
75169;SDS011;63749;49.186;9.222;2023-09-30T13:38:32;9.50;;;5.50;;
75169;SDS011;63749;49.186;9.222;2023-09-30T13:40:58;10.43;;;5.90;;
75169;SDS011;63749;49.186;9.222;2023-09-30T13:43:24;11.23;;;5.47;;
75169;SDS011;63749;49.186;9.222;2023-09-30T13:45:51;9.43;;;5.40;;
75169;SDS011;63749;49.186;9.222;2023-09-30T13:48:16;11.43;;;6.07;;
75169;SDS011;63749;49.186;9.222;2023-09-30T13:50:41;9.83;;;5.50;;
75169;SDS011;63749;49.186;9.222;2023-09-30T13:53:07;9.73;;;5.47;;
75169;SDS011;63749;49.186;9.222;2023-09-30T13:55:32;11.10;;;5.50;;
75169;SDS011;63749;49.186;9.222;2023-09-30T13:57:57;12.13;;;5.40;;
75169;SDS011;63749;49.186;9.222;2023-09-30T14:00:23;12.13;;;6.00;;
75169;SDS011;63749;49.186;9.222;2023-09-30T14:02:48;11.90;;;6.03;;
75169;SDS011;63749;49.186;9.222;2023-09-30T14:05:15;10.63;;;5.80;;
75169;SDS011;63749;49.186;9.222;2023-09-30T14:07:41;10.27;;;5.70;;
75169;SDS011;63749;49.186;9.222;2023-09-30T14:10:08;12.93;;;5.73;;
75169;SDS011;63749;49.186;9.222;2023-09-30T14:12:35;11.00;;;5.53;;
75169;SDS011;63749;49.186;9.222;2023-09-30T14:15:01;11.20;;;5.55;;
75169;SDS011;63749;49.186;9.222;2023-09-30T14:17:26;9.73;;;4.93;;
75169;SDS011;63749;49.186;9.222;2023-09-30T14:19:51;10.13;;;5.30;;
75169;SDS011;63749;49.186;9.222;2023-09-30T14:22:17;10.37;;;5.40;;
75169;SDS011;63749;49.186;9.222;2023-09-30T14:24:43;10.45;;;5.22;;
75169;SDS011;63749;49.186;9.222;2023-09-30T14:27:08;10.37;;;5.17;;
75169;SDS011;63749;49.186;9.222;2023-09-30T14:29:33;11.75;;;5.22;;
75169;SDS011;63749;49.186;9.222;2023-09-30T14:31:59;10.40;;;5.17;;
75169;SDS011;63749;49.186;9.222;2023-09-30T14:34:24;10.53;;;5.00;;
75169;SDS011;63749;49.186;9.222;2023-09-30T14:36:50;11.63;;;5.55;;
75169;SDS011;63749;49.186;9.222;2023-09-30T14:39:16;10.52;;;4.97;;
75169;SDS011;63749;49.186;9.222;2023-09-30T14:41:42;10.97;;;5.30;;
75169;SDS011;63749;49.186;9.222;2023-09-30T14:44:10;11.82;;;5.28;;
75169;SDS011;63749;49.186;9.222;2023-09-30T14:46:37;11.20;;;5.82;;
75169;SDS011;63749;49.186;9.222;2023-09-30T14:49:03;12.70;;;5.78;;
75169;SDS011;63749;49.186;9.222;2023-09-30T14:51:31;11.57;;;5.95;;
75169;SDS011;63749;49.186;9.222;2023-09-30T14:53:56;14.10;;;6.13;;
75169;SDS011;63749;49.186;9.222;2023-09-30T14:56:22;10.93;;;5.60;;